createdAt,value
2018-12-18T00:01:00.343Z,5.09
2018-12-18T00:02:06.887Z,5.08
2018-12-18T00:03:13.191Z,4.88
2018-12-18T00:04:19.521Z,5.03
2018-12-18T00:05:31.328Z,5.13
2018-12-18T00:06:37.647Z,5.09
2018-12-18T00:07:44.485Z,5.28
2018-12-18T00:08:50.058Z,5.27
2018-12-18T00:09:56.366Z,5.30
2018-12-18T00:11:03.368Z,5.14
2018-12-18T00:12:09.721Z,5.14
2018-12-18T00:13:16.064Z,5.18
2018-12-18T00:14:22.372Z,5.04
2018-12-18T00:15:28.325Z,5.09
2018-12-18T00:16:34.656Z,5.11
2018-12-18T00:17:40.965Z,5.13
2018-12-18T00:18:47.253Z,5.04
2018-12-18T00:19:53.542Z,5.12
2018-12-18T00:20:59.841Z,5.18
2018-12-18T00:22:05.438Z,5.16
2018-12-18T00:23:11.770Z,5.11
2018-12-18T00:24:18.093Z,5.10
2018-12-18T00:25:24.063Z,5.02
2018-12-18T00:26:30.383Z,4.89
2018-12-18T00:27:36.704Z,5.04
2018-12-18T00:28:43.020Z,5.10
2018-12-18T00:29:48.964Z,5.26
2018-12-18T00:30:54.920Z,5.33
2018-12-18T00:32:01.229Z,5.30
2018-12-18T00:33:07.539Z,5.19
2018-12-18T00:34:13.490Z,5.32
2018-12-18T00:35:19.780Z,5.32
2018-12-18T00:36:26.040Z,5.37
2018-12-18T00:37:32.361Z,5.26
2018-12-18T00:38:38.674Z,5.33
2018-12-18T00:39:44.945Z,5.48
2018-12-18T00:40:51.274Z,5.33
2018-12-18T00:41:57.602Z,5.18
2018-12-18T00:43:03.964Z,5.05
2018-12-18T00:44:10.311Z,5.24
2018-12-18T00:45:16.628Z,5.17
2018-12-18T00:46:23.130Z,5.15
2018-12-18T00:47:29.627Z,5.25
2018-12-18T00:48:35.932Z,5.36
2018-12-18T00:49:42.242Z,5.50
2018-12-18T00:50:48.556Z,5.44
2018-12-18T00:51:54.836Z,5.38
2018-12-18T00:53:01.152Z,5.32
2018-12-18T00:54:07.497Z,5.38
2018-12-18T00:55:13.812Z,5.40
2018-12-18T00:56:19.739Z,5.28
2018-12-18T00:57:26.035Z,5.23
2018-12-18T00:58:32.418Z,5.19
2018-12-18T00:59:38.790Z,5.32
2018-12-18T01:00:44.841Z,5.33
2018-12-18T01:01:56.584Z,5.19
2018-12-18T01:03:02.894Z,5.20
2018-12-18T01:04:09.205Z,5.32
2018-12-18T01:05:14.804Z,5.23
2018-12-18T01:06:21.091Z,5.19
2018-12-18T01:07:27.385Z,5.25
2018-12-18T01:08:33.350Z,5.37
2018-12-18T01:09:39.638Z,5.43
2018-12-18T01:10:45.950Z,5.45
2018-12-18T01:11:52.315Z,5.50
2018-12-18T01:12:58.685Z,5.52
2018-12-18T01:14:05.036Z,5.47
2018-12-18T01:15:11.046Z,5.48
2018-12-18T01:16:17.399Z,5.38
2018-12-18T01:17:23.748Z,5.24
2018-12-18T01:18:30.085Z,5.22
2018-12-18T01:19:36.873Z,5.32
2018-12-18T01:20:43.243Z,5.43
2018-12-18T01:21:49.545Z,5.34
2018-12-18T01:22:55.877Z,5.40
2018-12-18T01:24:02.177Z,5.35
2018-12-18T01:25:08.162Z,5.34
2018-12-18T01:26:14.538Z,5.30
2018-12-18T01:27:20.851Z,5.33
2018-12-18T01:28:27.168Z,5.42
2018-12-18T01:29:33.442Z,5.35
2018-12-18T01:30:39.761Z,5.27
2018-12-18T01:31:46.102Z,5.22
2018-12-18T01:32:52.377Z,5.28
2018-12-18T01:33:59.455Z,5.26
2018-12-18T01:35:04.336Z,5.26
2018-12-18T01:36:10.653Z,5.30
2018-12-18T01:37:16.969Z,5.36
2018-12-18T01:38:23.333Z,5.18
2018-12-18T01:39:29.693Z,5.22
2018-12-18T01:40:36.001Z,5.25
2018-12-18T01:41:42.374Z,5.23
2018-12-18T01:42:48.501Z,5.44
2018-12-18T01:43:54.812Z,5.43
2018-12-18T01:45:01.104Z,5.43
2018-12-18T01:46:07.426Z,5.33
2018-12-18T01:47:13.771Z,5.25
2018-12-18T01:48:20.090Z,5.25
2018-12-18T01:49:26.374Z,5.29
2018-12-18T01:50:32.693Z,5.37
2018-12-18T01:51:38.997Z,5.40
2018-12-18T01:52:45.287Z,5.45
2018-12-18T01:53:51.616Z,5.28
2018-12-18T01:54:57.912Z,5.24
2018-12-18T01:56:04.199Z,5.16
2018-12-18T01:57:10.521Z,5.18
2018-12-18T01:58:16.825Z,5.36
2018-12-18T01:59:23.115Z,5.34
2018-12-18T02:00:29.422Z,5.21
2018-12-18T02:01:34.685Z,5.13
2018-12-18T02:02:39.979Z,5.07
2018-12-18T02:03:45.310Z,5.19
2018-12-18T02:04:50.621Z,5.30
2018-12-18T02:05:55.963Z,5.31
2018-12-18T02:07:01.211Z,5.38
2018-12-18T02:08:07.531Z,5.46
2018-12-18T02:09:13.849Z,5.48
2018-12-18T02:10:20.202Z,5.42
2018-12-18T02:11:26.549Z,5.50
2018-12-18T02:12:32.832Z,5.38
2018-12-18T02:13:39.140Z,5.25
2018-12-18T02:14:45.463Z,5.24
2018-12-18T02:15:51.745Z,5.31
2018-12-18T02:16:58.065Z,5.33
2018-12-18T02:18:04.055Z,5.21
2018-12-18T02:19:10.388Z,5.37
2018-12-18T02:20:16.697Z,5.29
2018-12-18T02:21:23.014Z,5.31
2018-12-18T02:22:29.325Z,5.48
2018-12-18T02:23:35.739Z,5.33
2018-12-18T02:24:42.113Z,5.19
2018-12-18T02:25:48.441Z,5.26
2018-12-18T02:26:54.753Z,5.30
2018-12-18T02:28:01.064Z,5.24
2018-12-18T02:29:07.076Z,5.30
2018-12-18T02:30:12.697Z,5.30
2018-12-18T02:31:18.986Z,5.37
2018-12-18T02:32:24.961Z,5.36
2018-12-18T02:33:31.333Z,5.30
2018-12-18T02:34:37.602Z,5.26
2018-12-18T02:35:44.262Z,5.38
2018-12-18T02:36:50.555Z,5.31
2018-12-18T02:37:56.881Z,5.38
2018-12-18T02:39:03.205Z,5.23
2018-12-18T02:40:09.526Z,5.25
2018-12-18T02:41:15.862Z,5.25
2018-12-18T02:42:22.201Z,5.30
2018-12-18T02:43:28.685Z,5.30
2018-12-18T02:44:34.981Z,5.39
2018-12-18T02:45:41.277Z,5.21
2018-12-18T02:46:47.603Z,5.27
2018-12-18T02:47:53.918Z,5.14
2018-12-18T02:49:00.241Z,5.16
2018-12-18T02:50:05.818Z,5.14
2018-12-18T02:51:12.219Z,5.06
2018-12-18T02:52:18.473Z,5.26
2018-12-18T02:53:24.925Z,5.03
2018-12-18T02:54:31.146Z,4.91
2018-12-18T02:55:37.486Z,5.04
2018-12-18T02:56:43.807Z,5.04
2018-12-18T02:57:50.100Z,5.00
2018-12-18T02:58:56.441Z,4.82
2018-12-18T03:00:02.734Z,4.68
2018-12-18T03:01:09.053Z,4.89
2018-12-18T03:02:15.364Z,4.93
2018-12-18T03:03:21.668Z,5.06
2018-12-18T03:04:27.777Z,5.24
2018-12-18T03:05:34.162Z,5.21
2018-12-18T03:06:40.470Z,4.99
2018-12-18T03:07:46.785Z,4.94
2018-12-18T03:08:52.764Z,4.84
2018-12-18T03:09:59.102Z,4.81
2018-12-18T03:11:05.440Z,4.83
2018-12-18T03:12:11.786Z,4.74
2018-12-18T03:13:18.088Z,4.66
2018-12-18T03:14:24.440Z,4.61
2018-12-18T03:15:30.796Z,4.59
2018-12-18T03:16:37.140Z,4.77
2018-12-18T03:17:43.465Z,4.83
2018-12-18T03:18:49.776Z,4.87
2018-12-18T03:19:56.071Z,4.77
2018-12-18T03:21:02.369Z,4.72
2018-12-18T03:22:08.695Z,4.73
2018-12-18T03:23:15.055Z,4.79
2018-12-18T03:24:21.409Z,4.69
2018-12-18T03:25:27.366Z,4.71
2018-12-18T03:26:33.702Z,4.58
2018-12-18T03:27:40.064Z,4.56
2018-12-18T03:28:46.069Z,4.51
2018-12-18T03:29:52.379Z,4.45
2018-12-18T03:30:58.683Z,4.38
2018-12-18T03:32:04.771Z,4.28
2018-12-18T03:33:11.116Z,4.31
2018-12-18T03:34:17.481Z,4.30
2018-12-18T03:35:23.805Z,4.16
2018-12-18T03:36:30.094Z,4.27
2018-12-18T03:37:36.435Z,4.47
2018-12-18T03:38:42.784Z,4.51
2018-12-18T03:39:49.085Z,4.40
2018-12-18T03:40:55.053Z,4.56
2018-12-18T03:42:01.074Z,4.61
2018-12-18T03:43:06.985Z,4.54
2018-12-18T03:44:13.349Z,4.51
2018-12-18T03:45:19.853Z,4.70
2018-12-18T03:46:26.217Z,4.76
2018-12-18T03:47:32.182Z,4.77
2018-12-18T03:48:38.608Z,4.63
2018-12-18T03:49:44.928Z,4.47
2018-12-18T03:50:51.251Z,4.49
2018-12-18T03:51:57.618Z,4.52
2018-12-18T03:53:03.943Z,4.49
2018-12-18T03:54:09.940Z,4.47
2018-12-18T03:55:16.278Z,4.52
2018-12-18T03:56:22.561Z,4.64
2018-12-18T03:57:28.882Z,4.75
2018-12-18T03:58:34.829Z,4.62
2018-12-18T03:59:41.189Z,4.58
2018-12-18T04:00:47.525Z,4.45
2018-12-18T04:01:53.843Z,4.38
2018-12-18T04:03:00.153Z,4.67
2018-12-18T04:04:06.162Z,4.69
2018-12-18T04:05:12.102Z,4.64
2018-12-18T04:06:18.450Z,4.83
2018-12-18T04:07:24.725Z,4.79
2018-12-18T04:08:30.630Z,4.93
2018-12-18T04:09:37.021Z,4.99
2018-12-18T04:10:43.430Z,5.03
2018-12-18T04:11:55.204Z,5.01
2018-12-18T04:13:01.539Z,4.98
2018-12-18T04:14:07.872Z,4.96
2018-12-18T04:15:13.492Z,4.82
2018-12-18T04:16:19.805Z,4.78
2018-12-18T04:17:26.113Z,4.68
2018-12-18T04:18:32.481Z,4.70
2018-12-18T04:19:39.765Z,4.82
2018-12-18T04:20:46.057Z,4.77
2018-12-18T04:21:52.361Z,4.63
2018-12-18T04:22:58.281Z,4.54
2018-12-18T04:24:04.247Z,4.43
2018-12-18T04:25:10.593Z,4.38
2018-12-18T04:26:16.934Z,4.34
2018-12-18T04:27:23.273Z,4.40
2018-12-18T04:28:29.719Z,4.42
2018-12-18T04:29:36.047Z,4.51
2018-12-18T04:30:42.350Z,4.62
2018-12-18T04:31:48.654Z,4.68
2018-12-18T04:32:54.969Z,4.59
2018-12-18T04:34:01.299Z,4.54
2018-12-18T04:35:07.777Z,4.56
2018-12-18T04:36:14.084Z,4.72
2018-12-18T04:37:20.372Z,4.79
2018-12-18T04:38:26.682Z,4.88
2018-12-18T04:39:33.050Z,4.79
2018-12-18T04:40:39.374Z,4.51
2018-12-18T04:41:45.706Z,4.47
2018-12-18T04:42:52.087Z,4.49
2018-12-18T04:43:58.436Z,4.64
2018-12-18T04:45:03.858Z,4.57
2018-12-18T04:46:10.197Z,4.75
2018-12-18T04:47:16.545Z,4.61
2018-12-18T04:48:22.512Z,4.48
2018-12-18T04:49:28.878Z,4.52
2018-12-18T04:50:35.217Z,4.40
2018-12-18T04:51:41.902Z,4.38
2018-12-18T04:52:48.312Z,4.36
2018-12-18T04:53:54.688Z,4.53
2018-12-18T04:55:00.992Z,4.54
2018-12-18T04:56:07.285Z,4.63
2018-12-18T04:57:13.631Z,4.70
2018-12-18T04:58:19.959Z,4.72
2018-12-18T04:59:26.255Z,4.90
2018-12-18T05:00:32.593Z,4.92
2018-12-18T05:01:38.914Z,4.83
2018-12-18T05:02:45.228Z,4.74
2018-12-18T05:03:51.537Z,4.76
2018-12-18T05:04:57.914Z,4.88
2018-12-18T05:06:04.273Z,4.94
2018-12-18T05:07:10.569Z,4.97
2018-12-18T05:08:16.914Z,4.83
2018-12-18T05:09:23.347Z,4.89
2018-12-18T05:10:30.082Z,4.98
2018-12-18T05:11:36.402Z,4.97
2018-12-18T05:12:42.717Z,4.83
2018-12-18T05:13:48.719Z,4.71
2018-12-18T05:14:55.048Z,4.83
2018-12-18T05:16:01.334Z,4.85
2018-12-18T05:17:07.638Z,4.88
2018-12-18T05:18:14.073Z,4.75
2018-12-18T05:19:20.468Z,4.62
2018-12-18T05:20:26.783Z,4.58
2018-12-18T05:21:33.080Z,4.45
2018-12-18T05:22:39.408Z,4.59
2018-12-18T05:23:45.717Z,4.66
2018-12-18T05:24:52.544Z,4.75
2018-12-18T05:25:58.884Z,4.79
2018-12-18T05:27:05.205Z,4.75
2018-12-18T05:28:11.169Z,4.92
2018-12-18T05:29:17.485Z,4.83
2018-12-18T05:30:23.834Z,4.83
2018-12-18T05:31:30.175Z,4.74
2018-12-18T05:32:36.502Z,4.54
2018-12-18T05:33:42.851Z,4.41
2018-12-18T05:34:49.605Z,4.31
2018-12-18T05:35:56.609Z,4.33
2018-12-18T05:37:03.557Z,4.39
2018-12-18T05:38:09.869Z,4.57
2018-12-18T05:39:16.218Z,4.69
2018-12-18T05:40:23.206Z,4.68
2018-12-18T05:41:30.168Z,4.59
2018-12-18T05:42:36.478Z,4.59
2018-12-18T05:43:42.773Z,4.65
2018-12-18T05:44:49.102Z,4.59
2018-12-18T05:45:55.386Z,4.62
2018-12-18T05:47:01.674Z,4.44
2018-12-18T05:48:07.967Z,4.38
2018-12-18T05:49:14.309Z,4.32
2018-12-18T05:50:20.605Z,4.59
2018-12-18T05:51:26.899Z,4.71
2018-12-18T05:52:33.444Z,4.95
2018-12-18T05:53:39.827Z,4.93
2018-12-18T05:54:46.702Z,4.93
2018-12-18T05:55:53.289Z,4.98
2018-12-18T05:56:59.676Z,4.91
2018-12-18T05:58:05.973Z,4.80
2018-12-18T05:59:12.410Z,4.85
2018-12-18T06:00:18.762Z,4.90
2018-12-18T06:01:25.100Z,4.76
2018-12-18T06:02:31.700Z,4.96
2018-12-18T06:03:38.085Z,4.88
2018-12-18T06:04:44.416Z,4.85
2018-12-18T06:05:50.726Z,5.00
2018-12-18T06:06:57.110Z,5.02
2018-12-18T06:08:03.426Z,4.95
2018-12-18T06:09:09.744Z,5.02
2018-12-18T06:10:16.065Z,4.97
2018-12-18T06:11:22.374Z,4.83
2018-12-18T06:12:28.987Z,4.91
2018-12-18T06:13:35.552Z,5.02
2018-12-18T06:14:41.586Z,4.64
2018-12-18T06:15:47.921Z,4.62
2018-12-18T06:16:54.724Z,4.63
2018-12-18T06:18:01.075Z,4.56
2018-12-18T06:19:07.389Z,4.64
2018-12-18T06:20:13.394Z,4.83
2018-12-18T06:21:19.740Z,4.94
2018-12-18T06:22:26.349Z,4.99
2018-12-18T06:23:32.678Z,4.95
2018-12-18T06:24:39.132Z,4.90
2018-12-18T06:25:45.486Z,5.00
2018-12-18T06:26:51.831Z,4.85
2018-12-18T06:27:58.273Z,4.76
2018-12-18T06:29:04.787Z,4.72
2018-12-18T06:30:11.232Z,4.88
2018-12-18T06:31:17.680Z,4.94
2018-12-18T06:32:24.940Z,4.99
2018-12-18T06:33:31.361Z,4.96
2018-12-18T06:34:37.804Z,4.93
2018-12-18T06:35:44.355Z,5.00
2018-12-18T06:36:51.147Z,5.06
2018-12-18T06:37:57.653Z,5.05
2018-12-18T06:39:03.414Z,4.84
2018-12-18T06:40:09.913Z,4.93
2018-12-18T06:41:16.389Z,4.82
2018-12-18T06:42:22.705Z,4.88
2018-12-18T06:43:29.669Z,4.75
2018-12-18T06:44:36.053Z,4.69
2018-12-18T06:45:42.367Z,4.89
2018-12-18T06:46:48.718Z,4.80
2018-12-18T06:47:55.081Z,5.01
2018-12-18T06:49:01.420Z,4.96
2018-12-18T06:50:07.436Z,4.96
2018-12-18T06:51:13.819Z,4.76
2018-12-18T06:52:20.153Z,4.94
2018-12-18T06:53:26.459Z,5.01
2018-12-18T06:54:32.802Z,4.99
2018-12-18T06:55:39.387Z,4.99
2018-12-18T06:56:45.681Z,4.97
2018-12-18T06:57:52.013Z,4.89
2018-12-18T06:58:58.967Z,4.80
2018-12-18T07:00:04.836Z,4.69
2018-12-18T07:01:11.189Z,4.76
2018-12-18T07:02:17.528Z,4.89
2018-12-18T07:03:23.838Z,4.72
2018-12-18T07:04:30.199Z,4.74
2018-12-18T07:05:36.557Z,4.83
2018-12-18T07:06:42.865Z,4.83
2018-12-18T07:07:49.160Z,4.96
2018-12-18T07:08:55.494Z,4.81
2018-12-18T07:10:01.835Z,4.82
2018-12-18T07:11:08.165Z,4.82
2018-12-18T07:12:14.492Z,4.82
2018-12-18T07:13:20.898Z,4.82
2018-12-18T07:14:27.257Z,4.87
2018-12-18T07:15:33.593Z,4.94
2018-12-18T07:16:39.891Z,4.82
2018-12-18T07:17:46.248Z,4.88
2018-12-18T07:18:52.573Z,4.94
2018-12-18T07:19:58.944Z,4.97
2018-12-18T07:21:04.984Z,4.94
2018-12-18T07:22:11.298Z,4.85
2018-12-18T07:23:17.600Z,4.96
2018-12-18T07:24:23.910Z,5.00
2018-12-18T07:25:30.266Z,5.01
2018-12-18T07:26:36.673Z,4.99
2018-12-18T07:27:43.009Z,4.91
2018-12-18T07:28:49.993Z,4.93
2018-12-18T07:29:55.747Z,5.08
2018-12-18T07:31:02.076Z,5.06
2018-12-18T07:32:08.361Z,5.05
2018-12-18T07:33:14.866Z,5.04
2018-12-18T07:34:21.201Z,4.82
2018-12-18T07:35:27.581Z,4.86
2018-12-18T07:36:33.982Z,4.94
2018-12-18T07:37:40.295Z,4.88
2018-12-18T07:38:46.606Z,4.96
2018-12-18T07:39:52.951Z,4.85
2018-12-18T07:40:58.926Z,4.70
2018-12-18T07:42:05.556Z,4.90
2018-12-18T07:43:12.061Z,4.86
2018-12-18T07:44:18.397Z,4.95
2018-12-18T07:45:24.744Z,4.91
2018-12-18T07:46:31.066Z,4.96
2018-12-18T07:47:37.433Z,5.00
2018-12-18T07:48:43.742Z,5.03
2018-12-18T07:49:50.064Z,5.02
2018-12-18T07:50:56.466Z,5.03
2018-12-18T07:52:02.858Z,4.96
2018-12-18T07:53:09.163Z,5.06
2018-12-18T07:54:15.475Z,5.03
2018-12-18T07:55:21.839Z,5.04
2018-12-18T07:56:28.182Z,5.11
2018-12-18T07:57:34.480Z,4.98
2018-12-18T07:58:40.802Z,4.94
2018-12-18T07:59:47.127Z,4.97
2018-12-18T08:00:53.091Z,5.09
2018-12-18T08:01:59.400Z,5.02
2018-12-18T08:03:05.355Z,5.03
2018-12-18T08:04:11.694Z,4.99
2018-12-18T08:05:18.082Z,5.04
2018-12-18T08:06:24.453Z,5.10
2018-12-18T08:07:30.495Z,5.13
2018-12-18T08:08:36.861Z,5.18
2018-12-18T08:09:43.211Z,5.10
2018-12-18T08:10:49.265Z,4.98
2018-12-18T08:11:55.581Z,5.05
2018-12-18T08:13:01.941Z,5.11
2018-12-18T08:14:08.252Z,5.08
2018-12-18T08:15:14.276Z,5.11
2018-12-18T08:16:20.604Z,5.01
2018-12-18T08:17:26.892Z,5.02
2018-12-18T08:18:33.226Z,5.11
2018-12-18T08:19:39.589Z,4.96
2018-12-18T08:20:46.246Z,5.00
2018-12-18T08:21:51.986Z,5.00
2018-12-18T08:22:58.302Z,5.03
2018-12-18T08:24:04.642Z,5.04
2018-12-18T08:25:10.968Z,5.12
2018-12-18T08:26:17.259Z,5.11
2018-12-18T08:27:23.612Z,5.01
2018-12-18T08:28:29.939Z,5.04
2018-12-18T08:29:36.277Z,5.16
2018-12-18T08:30:42.599Z,5.23
2018-12-18T08:31:48.892Z,5.29
2018-12-18T08:32:55.226Z,5.37
2018-12-18T08:34:01.519Z,5.21
2018-12-18T08:35:07.868Z,5.28
2018-12-18T08:36:14.208Z,5.32
2018-12-18T08:37:20.497Z,5.34
2018-12-18T08:38:26.844Z,5.44
2018-12-18T08:39:33.117Z,5.40
2018-12-18T08:40:39.461Z,5.37
2018-12-18T08:41:47.409Z,5.39
2018-12-18T08:42:55.043Z,5.43
2018-12-18T08:44:02.733Z,5.42
2018-12-18T08:45:10.639Z,5.58
2018-12-18T08:46:17.267Z,5.72
2018-12-18T08:47:23.562Z,5.70
2018-12-18T08:48:29.880Z,5.71
2018-12-18T08:49:36.274Z,5.67
2018-12-18T08:50:42.640Z,5.66
2018-12-18T08:51:48.639Z,5.76
2018-12-18T08:52:54.988Z,5.64
2018-12-18T08:54:01.319Z,5.65
2018-12-18T08:55:06.969Z,5.58
2018-12-18T08:56:13.266Z,5.50
2018-12-18T08:57:19.541Z,5.43
2018-12-18T08:58:25.898Z,5.54
2018-12-18T08:59:32.242Z,5.72
2018-12-18T09:00:38.602Z,5.75
2018-12-18T09:01:44.915Z,5.78
2018-12-18T09:02:51.245Z,5.78
2018-12-18T09:03:57.553Z,5.80
2018-12-18T09:05:03.537Z,5.78
2018-12-18T09:06:09.873Z,5.67
2018-12-18T09:07:16.169Z,5.59
2018-12-18T09:08:22.481Z,5.50
2018-12-18T09:09:28.880Z,5.61
2018-12-18T09:10:39.747Z,5.75
2018-12-18T09:11:41.273Z,5.73
2018-12-18T09:12:47.599Z,5.81
2018-12-18T09:13:53.970Z,5.77
2018-12-18T09:15:00.072Z,5.83
2018-12-18T09:16:06.158Z,5.78
2018-12-18T09:17:12.259Z,5.79
2018-12-18T09:18:18.594Z,5.80
2018-12-18T09:19:24.957Z,5.95
2018-12-18T09:20:31.318Z,5.98
2018-12-18T09:21:37.348Z,6.03
2018-12-18T09:22:43.341Z,5.91
2018-12-18T09:23:49.668Z,5.85
2018-12-18T09:24:55.993Z,5.81
2018-12-18T09:26:02.339Z,5.65
2018-12-18T09:27:08.668Z,5.86
2018-12-18T09:28:14.973Z,5.77
2018-12-18T09:29:21.333Z,5.75
2018-12-18T09:30:27.687Z,5.86
2018-12-18T09:31:33.980Z,6.03
2018-12-18T09:32:40.266Z,5.91
2018-12-18T09:33:46.613Z,5.74
2018-12-18T09:34:52.970Z,5.91
2018-12-18T09:35:59.283Z,6.02
2018-12-18T09:37:05.605Z,6.09
2018-12-18T09:39:44.744Z,6.16
2018-12-18T09:40:56.342Z,6.15
2018-12-18T09:43:46.849Z,6.27
2018-12-18T09:44:53.189Z,6.28
2018-12-18T09:45:59.510Z,6.27
2018-12-18T09:47:05.776Z,6.28
2018-12-18T09:48:12.095Z,6.24
2018-12-18T09:49:18.418Z,6.31
2018-12-18T09:50:24.769Z,6.31
2018-12-18T09:51:31.092Z,6.43
2018-12-18T09:52:38.739Z,6.60
2018-12-18T09:53:45.072Z,6.51
2018-12-18T09:54:51.390Z,6.55
2018-12-18T09:55:57.741Z,6.40
2018-12-18T09:57:03.819Z,6.45
2018-12-18T09:58:12.038Z,6.40
2018-12-18T09:59:18.089Z,6.38
2018-12-18T10:00:24.370Z,6.53
2018-12-18T10:01:30.687Z,6.62
2018-12-18T10:02:36.651Z,6.66
2018-12-18T10:03:42.985Z,6.67
2018-12-18T10:04:49.285Z,6.52
2018-12-18T10:05:56.497Z,6.44
2018-12-18T10:07:01.877Z,6.56
2018-12-18T10:08:08.194Z,6.69
2018-12-18T10:09:14.506Z,6.60
2018-12-18T10:10:20.791Z,6.69
2018-12-18T10:11:27.110Z,6.88
2018-12-18T10:12:38.901Z,6.99
2018-12-18T10:13:45.255Z,6.82
2018-12-18T10:14:51.585Z,6.83
2018-12-18T10:15:57.876Z,6.75
2018-12-18T10:17:04.186Z,6.78
2018-12-18T10:18:10.533Z,6.77
2018-12-18T10:19:16.808Z,6.86
2018-12-18T10:20:23.108Z,6.86
2018-12-18T10:21:29.391Z,6.85
2018-12-18T10:22:35.746Z,6.86
2018-12-18T10:23:42.032Z,6.96
2018-12-18T10:24:48.334Z,6.93
2018-12-18T10:25:54.606Z,6.86
2018-12-18T10:27:00.880Z,6.86
2018-12-18T10:28:07.209Z,6.83
2018-12-18T10:29:13.505Z,6.85
2018-12-18T10:30:19.819Z,6.92
2018-12-18T10:31:25.884Z,7.00
2018-12-18T10:32:32.172Z,6.82
2018-12-18T10:33:38.494Z,6.90
2018-12-18T10:34:44.818Z,6.90
2018-12-18T10:35:51.114Z,6.84
2018-12-18T10:36:57.426Z,6.78
2018-12-18T10:38:03.735Z,6.85
2018-12-18T10:39:10.325Z,6.78
2018-12-18T10:40:17.048Z,6.83
2018-12-18T10:41:23.302Z,6.83
2018-12-18T10:42:29.605Z,6.89
2018-12-18T10:43:35.921Z,6.97
2018-12-18T10:44:41.556Z,7.08
2018-12-18T10:45:47.837Z,7.20
2018-12-18T10:46:54.122Z,7.13
2018-12-18T10:48:00.459Z,7.23
2018-12-18T10:49:06.718Z,7.16
2018-12-18T10:50:12.656Z,7.10
2018-12-18T10:51:18.948Z,7.08
2018-12-18T10:52:25.253Z,7.24
2018-12-18T10:53:31.639Z,7.26
2018-12-18T10:54:37.958Z,7.33
2018-12-18T10:55:44.256Z,7.31
2018-12-18T10:56:50.557Z,7.15
2018-12-18T10:57:56.881Z,7.21
2018-12-18T10:59:03.159Z,7.39
2018-12-18T11:00:08.514Z,7.53
2018-12-18T11:01:14.603Z,7.67
2018-12-18T11:02:20.573Z,7.68
2018-12-18T11:03:26.893Z,7.75
2018-12-18T11:04:33.171Z,7.66
2018-12-18T11:05:39.448Z,7.74
2018-12-18T11:06:45.704Z,7.60
2018-12-18T11:07:52.031Z,7.56
2018-12-18T11:08:57.948Z,7.58
2018-12-18T11:10:03.536Z,7.69
2018-12-18T11:11:09.821Z,7.62
2018-12-18T11:12:15.861Z,7.49
2018-12-18T11:13:22.140Z,7.42
2018-12-18T11:14:28.485Z,7.25
2018-12-18T11:15:34.766Z,7.41
2018-12-18T11:16:41.346Z,7.37
2018-12-18T11:17:47.956Z,7.56
2018-12-18T11:18:54.268Z,7.43
2018-12-18T11:20:00.572Z,7.51
2018-12-18T11:21:06.850Z,7.40
2018-12-18T11:22:13.205Z,7.53
2018-12-18T11:23:19.809Z,7.49
2018-12-18T11:24:25.501Z,7.36
2018-12-18T11:25:31.561Z,7.35
2018-12-18T11:26:37.857Z,7.27
2018-12-18T11:27:43.801Z,7.30
2018-12-18T11:28:50.116Z,7.41
2018-12-18T11:29:56.420Z,7.51
2018-12-18T11:31:02.737Z,7.31
2018-12-18T11:32:09.547Z,7.47
2018-12-18T11:33:15.377Z,7.57
2018-12-18T11:34:21.671Z,7.46
2018-12-18T11:35:27.975Z,7.55
2018-12-18T11:36:34.236Z,7.63
2018-12-18T11:37:40.520Z,7.71
2018-12-18T11:38:46.851Z,7.77
2018-12-18T11:39:53.144Z,7.67
2018-12-18T11:40:59.501Z,7.56
2018-12-18T11:42:05.800Z,7.65
2018-12-18T11:43:12.084Z,7.65
2018-12-18T11:44:18.373Z,7.63
2018-12-18T11:45:24.687Z,7.67
2018-12-18T11:46:30.960Z,7.72
2018-12-18T11:47:37.296Z,7.82
2018-12-18T11:48:43.583Z,7.58
2018-12-18T11:49:49.851Z,7.51
2018-12-18T11:50:56.157Z,7.53
2018-12-18T11:52:02.477Z,7.64
2018-12-18T11:53:08.786Z,7.64
2018-12-18T11:54:15.249Z,7.61
2018-12-18T11:55:21.542Z,7.75
2018-12-18T11:56:27.885Z,7.82
2018-12-18T11:57:34.197Z,7.69
2018-12-18T11:58:40.500Z,7.43
2018-12-18T11:59:47.472Z,7.54
2018-12-18T12:00:54.505Z,7.54
2018-12-18T12:02:00.765Z,7.59
2018-12-18T12:03:07.031Z,7.53
2018-12-18T12:04:13.377Z,7.60
2018-12-18T12:05:19.689Z,7.68
2018-12-18T12:06:25.948Z,7.54
2018-12-18T12:07:32.252Z,7.37
2018-12-18T12:08:38.580Z,7.44
2018-12-18T12:09:44.879Z,7.58
2018-12-18T12:10:51.181Z,7.55
2018-12-18T12:11:57.463Z,7.50
2018-12-18T12:13:03.483Z,7.55
2018-12-18T12:14:09.797Z,7.67
2018-12-18T12:15:16.144Z,7.62
2018-12-18T12:16:22.440Z,7.62
2018-12-18T12:17:28.476Z,7.61
2018-12-18T12:18:34.785Z,7.50
2018-12-18T12:19:41.070Z,7.38
2018-12-18T12:20:47.716Z,7.30
2018-12-18T12:21:54.227Z,7.21
2018-12-18T12:23:00.569Z,7.35
2018-12-18T12:24:06.917Z,7.55
2018-12-18T12:25:13.206Z,7.58
2018-12-18T12:26:24.792Z,7.53
2018-12-18T12:27:33.832Z,7.49
2018-12-18T12:28:40.139Z,7.46
2018-12-18T12:29:46.440Z,7.72
2018-12-18T12:30:52.760Z,7.66
2018-12-18T12:31:59.031Z,7.51
2018-12-18T12:33:05.284Z,7.55
2018-12-18T12:34:11.593Z,7.34
2018-12-18T12:35:17.974Z,7.45
2018-12-18T12:36:29.570Z,7.56
2018-12-18T12:37:30.636Z,7.57
2018-12-18T12:38:36.919Z,7.62
2018-12-18T12:39:43.229Z,7.57
2018-12-18T12:40:49.540Z,7.62
2018-12-18T12:41:55.888Z,7.70
2018-12-18T12:43:02.204Z,7.54
2018-12-18T12:44:08.574Z,7.41
2018-12-18T12:45:14.928Z,7.32
2018-12-18T12:46:21.212Z,7.55
2018-12-18T12:47:27.501Z,7.73
2018-12-18T12:48:38.885Z,7.91
2018-12-18T12:49:45.151Z,7.91
2018-12-18T12:50:51.449Z,7.86
2018-12-18T12:51:57.730Z,7.93
2018-12-18T12:53:04.056Z,7.72
2018-12-18T12:54:10.367Z,7.80
2018-12-18T12:55:16.637Z,7.77
2018-12-18T12:56:23.801Z,7.91
2018-12-18T12:57:30.107Z,7.78
2018-12-18T12:58:36.383Z,7.79
2018-12-18T12:59:42.684Z,7.75
2018-12-18T13:00:48.993Z,7.99
2018-12-18T13:01:55.331Z,8.18
2018-12-18T13:03:01.631Z,7.98
2018-12-18T13:04:07.928Z,7.80
2018-12-18T13:05:14.224Z,7.98
2018-12-18T13:06:20.502Z,8.13
2018-12-18T13:07:26.809Z,7.98
2018-12-18T13:08:33.125Z,7.88
2018-12-18T13:09:39.471Z,7.89
2018-12-18T13:10:45.772Z,8.01
2018-12-18T13:11:52.036Z,7.94
2018-12-18T13:12:58.373Z,7.93
2018-12-18T13:14:03.997Z,8.14
2018-12-18T13:15:10.300Z,8.21
2018-12-18T13:16:16.584Z,8.17
2018-12-18T13:17:22.887Z,8.12
2018-12-18T13:18:29.204Z,7.89
2018-12-18T13:19:35.532Z,8.03
2018-12-18T13:20:41.785Z,8.06
2018-12-18T13:21:48.086Z,8.22
2018-12-18T13:22:54.417Z,8.16
2018-12-18T13:24:01.404Z,7.83
2018-12-18T13:25:07.770Z,7.80
2018-12-18T13:26:14.065Z,7.89
2018-12-18T13:27:20.356Z,8.08
2018-12-18T13:28:26.685Z,7.74
2018-12-18T13:29:32.813Z,7.68
2018-12-18T13:30:39.116Z,7.52
2018-12-18T13:31:45.188Z,7.37
2018-12-18T13:32:51.465Z,7.40
2018-12-18T13:33:57.771Z,7.32
2018-12-18T13:35:03.741Z,7.15
2018-12-18T13:36:09.719Z,7.05
2018-12-18T13:37:16.001Z,7.10
2018-12-18T13:38:22.291Z,7.16
2018-12-18T13:39:28.251Z,7.14
2018-12-18T13:40:34.701Z,7.15
2018-12-18T13:41:40.995Z,7.08
2018-12-18T13:42:47.312Z,7.14
2018-12-18T13:43:53.636Z,7.09
2018-12-18T13:44:59.991Z,6.93
2018-12-18T13:46:05.969Z,6.86
2018-12-18T13:47:12.284Z,6.77
2018-12-18T13:48:18.671Z,6.82
2018-12-18T13:49:25.001Z,6.83
2018-12-18T13:50:31.352Z,6.77
2018-12-18T13:51:37.660Z,6.74
2018-12-18T13:52:44.005Z,6.77
2018-12-18T13:53:50.368Z,6.75
2018-12-18T13:54:56.705Z,6.59
2018-12-18T13:56:03.022Z,6.58
2018-12-18T13:57:08.985Z,6.59
2018-12-18T13:58:15.278Z,6.80
2018-12-18T13:59:21.589Z,6.80
2018-12-18T14:00:27.957Z,6.88
2018-12-18T14:01:34.285Z,6.93
2018-12-18T14:02:40.640Z,6.75
2018-12-18T14:03:46.904Z,6.76
2018-12-18T14:04:53.221Z,6.77
2018-12-18T14:05:59.522Z,6.71
2018-12-18T14:07:05.509Z,6.42
2018-12-18T14:08:11.799Z,6.21
2018-12-18T14:09:18.136Z,6.08
2018-12-18T14:10:24.480Z,5.98
2018-12-18T14:11:30.820Z,5.92
2018-12-18T14:12:37.130Z,5.89
2018-12-18T14:13:43.468Z,6.06
2018-12-18T14:14:49.832Z,6.24
2018-12-18T14:15:56.300Z,6.27
2018-12-18T14:17:02.370Z,6.17
2018-12-18T14:18:08.713Z,6.05
2018-12-18T14:19:15.035Z,6.02
2018-12-18T14:20:21.084Z,5.91
2018-12-18T14:21:27.388Z,5.82
2018-12-18T14:22:33.694Z,5.74
2018-12-18T14:23:40.087Z,5.68
2018-12-18T14:24:46.490Z,5.64
2018-12-18T14:25:52.867Z,5.61
2018-12-18T14:26:59.539Z,5.59
2018-12-18T14:28:05.505Z,5.53
2018-12-18T14:29:11.817Z,5.58
2018-12-18T14:30:18.156Z,5.59
2018-12-18T14:31:24.499Z,5.68
2018-12-18T14:32:30.803Z,5.63
2018-12-18T14:33:37.090Z,5.72
2018-12-18T14:34:43.380Z,5.56
2018-12-18T14:35:49.722Z,5.46
2018-12-18T14:36:56.381Z,5.59
2018-12-18T14:38:02.340Z,5.47
2018-12-18T14:39:08.627Z,5.34
2018-12-18T14:40:15.041Z,5.21
2018-12-18T14:41:21.347Z,5.08
2018-12-18T14:42:27.687Z,4.97
2018-12-18T14:43:34.016Z,4.93
2018-12-18T14:44:40.326Z,4.90
2018-12-18T14:45:46.681Z,4.86
2018-12-18T14:46:53.019Z,4.83